sensor_id;sensor_type;location;lat;lon;timestamp;pressure;altitude;pressure_sealevel;temperature;humidity
29359;BME280;16347;53.232;6.556;2023-01-26T00:00:07;102472.63;;;2.31;77.24
29359;BME280;16347;53.232;6.556;2023-01-26T00:02:37;102467.16;;;2.13;77.80
29359;BME280;16347;53.232;6.556;2023-01-26T00:05:06;102469.94;;;2.31;77.69
29359;BME280;16347;53.232;6.556;2023-01-26T00:07:35;102462.19;;;2.44;77.46
29359;BME280;16347;53.232;6.556;2023-01-26T00:10:05;102460.41;;;2.44;77.39
29359;BME280;16347;53.232;6.556;2023-01-26T00:12:35;102464.06;;;2.42;77.12
29359;BME280;16347;53.232;6.556;2023-01-26T00:15:06;102459.19;;;2.51;77.30
29359;BME280;16347;53.232;6.556;2023-01-26T00:17:35;102458.03;;;2.57;77.06
29359;BME280;16347;53.232;6.556;2023-01-26T00:20:04;102466.69;;;2.64;76.63
29359;BME280;16347;53.232;6.556;2023-01-26T00:22:32;102476.47;;;2.85;76.19
29359;BME280;16347;53.232;6.556;2023-01-26T00:25:00;102467.41;;;2.67;76.00
29359;BME280;16347;53.232;6.556;2023-01-26T00:27:31;102461.50;;;2.59;76.51
29359;BME280;16347;53.232;6.556;2023-01-26T00:29:59;102466.09;;;2.37;77.14
29359;BME280;16347;53.232;6.556;2023-01-26T00:32:28;102453.81;;;2.51;77.35
29359;BME280;16347;53.232;6.556;2023-01-26T00:34:56;102443.41;;;2.64;76.96
29359;BME280;16347;53.232;6.556;2023-01-26T00:37:26;102452.59;;;2.58;76.68
29359;BME280;16347;53.232;6.556;2023-01-26T00:39:54;102450.63;;;2.62;76.82
29359;BME280;16347;53.232;6.556;2023-01-26T00:42:23;102444.72;;;2.74;76.66
29359;BME280;16347;53.232;6.556;2023-01-26T00:44:51;102435.72;;;2.75;76.25
29359;BME280;16347;53.232;6.556;2023-01-26T00:47:19;102438.03;;;2.83;76.26
29359;BME280;16347;53.232;6.556;2023-01-26T00:49:50;102429.84;;;2.86;76.06
29359;BME280;16347;53.232;6.556;2023-01-26T00:52:18;102437.25;;;2.81;76.33
29359;BME280;16347;53.232;6.556;2023-01-26T00:54:46;102426.84;;;2.73;76.50
29359;BME280;16347;53.232;6.556;2023-01-26T00:57:14;102428.38;;;2.79;76.34
29359;BME280;16347;53.232;6.556;2023-01-26T00:59:42;102421.00;;;2.84;76.19
29359;BME280;16347;53.232;6.556;2023-01-26T01:02:10;102431.59;;;2.87;76.19
29359;BME280;16347;53.232;6.556;2023-01-26T01:04:38;102423.00;;;2.79;75.94
29359;BME280;16347;53.232;6.556;2023-01-26T01:07:09;102438.06;;;2.63;76.95
29359;BME280;16347;53.232;6.556;2023-01-26T01:09:37;102432.66;;;2.64;77.09
29359;BME280;16347;53.232;6.556;2023-01-26T01:12:05;102427.34;;;2.63;77.13
29359;BME280;16347;53.232;6.556;2023-01-26T01:14:34;102425.63;;;2.80;76.91
29359;BME280;16347;53.232;6.556;2023-01-26T01:17:02;102426.06;;;2.90;76.45
29359;BME280;16347;53.232;6.556;2023-01-26T01:19:30;102428.47;;;2.96;76.38
29359;BME280;16347;53.232;6.556;2023-01-26T01:21:58;102430.31;;;2.95;76.40
29359;BME280;16347;53.232;6.556;2023-01-26T01:24:27;102430.44;;;2.92;75.98
29359;BME280;16347;53.232;6.556;2023-01-26T01:26:55;102428.16;;;2.83;76.22
29359;BME280;16347;53.232;6.556;2023-01-26T01:29:23;102443.56;;;2.80;76.40
29359;BME280;16347;53.232;6.556;2023-01-26T01:31:52;102441.88;;;2.77;76.68
29359;BME280;16347;53.232;6.556;2023-01-26T01:34:20;102443.59;;;2.98;76.35
29359;BME280;16347;53.232;6.556;2023-01-26T01:36:53;102432.84;;;2.98;75.98
29359;BME280;16347;53.232;6.556;2023-01-26T01:39:22;102435.59;;;2.78;76.06
29359;BME280;16347;53.232;6.556;2023-01-26T01:41:56;102450.25;;;2.71;76.82
29359;BME280;16347;53.232;6.556;2023-01-26T01:44:28;102454.19;;;2.63;77.21
29359;BME280;16347;53.232;6.556;2023-01-26T01:46:58;102459.63;;;2.81;76.94
29359;BME280;16347;53.232;6.556;2023-01-26T01:49:33;102453.75;;;2.92;76.66
29359;BME280;16347;53.232;6.556;2023-01-26T01:52:07;102459.03;;;2.75;76.91
29359;BME280;16347;53.232;6.556;2023-01-26T01:54:40;102445.97;;;2.86;76.79
29359;BME280;16347;53.232;6.556;2023-01-26T01:57:15;102461.00;;;2.90;76.98
29359;BME280;16347;53.232;6.556;2023-01-26T01:59:50;102453.63;;;3.14;77.01
29359;BME280;16347;53.232;6.556;2023-01-26T02:02:22;102453.84;;;3.28;75.98
29359;BME280;16347;53.232;6.556;2023-01-26T02:04:53;102446.25;;;3.36;75.68
29359;BME280;16347;53.232;6.556;2023-01-26T02:07:24;102439.38;;;3.49;75.20
29359;BME280;16347;53.232;6.556;2023-01-26T02:09:53;102439.47;;;3.29;75.06
29359;BME280;16347;53.232;6.556;2023-01-26T02:12:43;102434.22;;;3.44;75.12
29359;BME280;16347;53.232;6.556;2023-01-26T02:15:13;102432.41;;;3.45;74.97
29359;BME280;16347;53.232;6.556;2023-01-26T02:17:41;102427.69;;;3.31;74.84
29359;BME280;16347;53.232;6.556;2023-01-26T02:20:17;102417.97;;;3.46;75.28
29359;BME280;16347;53.232;6.556;2023-01-26T02:22:57;102425.56;;;3.38;74.89
29359;BME280;16347;53.232;6.556;2023-01-26T02:25:39;102426.28;;;3.41;74.90
29359;BME280;16347;53.232;6.556;2023-01-26T02:28:10;102430.34;;;3.50;75.09
29359;BME280;16347;53.232;6.556;2023-01-26T02:30:38;102417.19;;;3.63;74.69
29359;BME280;16347;53.232;6.556;2023-01-26T02:33:06;102422.78;;;3.58;74.06
29359;BME280;16347;53.232;6.556;2023-01-26T02:35:41;102419.69;;;3.48;75.01
29359;BME280;16347;53.232;6.556;2023-01-26T02:38:11;102425.88;;;3.32;75.23
29359;BME280;16347;53.232;6.556;2023-01-26T02:40:45;102425.56;;;3.38;75.43
29359;BME280;16347;53.232;6.556;2023-01-26T02:43:19;102418.28;;;3.58;75.52
29359;BME280;16347;53.232;6.556;2023-01-26T02:45:47;102423.97;;;3.70;75.15
29359;BME280;16347;53.232;6.556;2023-01-26T02:48:15;102421.94;;;3.75;74.33
29359;BME280;16347;53.232;6.556;2023-01-26T02:51:04;102417.13;;;3.81;74.22
29359;BME280;16347;53.232;6.556;2023-01-26T02:53:32;102429.28;;;3.71;74.27
29359;BME280;16347;53.232;6.556;2023-01-26T02:56:01;102425.97;;;3.83;74.19
29359;BME280;16347;53.232;6.556;2023-01-26T02:58:29;102430.25;;;3.87;74.18
29359;BME280;16347;53.232;6.556;2023-01-26T03:00:57;102420.94;;;3.94;74.19
29359;BME280;16347;53.232;6.556;2023-01-26T03:03:27;102412.94;;;4.10;73.75
29359;BME280;16347;53.232;6.556;2023-01-26T03:06:08;102418.31;;;4.10;73.54
29359;BME280;16347;53.232;6.556;2023-01-26T03:08:39;102423.78;;;3.91;73.52
29359;BME280;16347;53.232;6.556;2023-01-26T03:11:08;102416.09;;;3.84;73.56
29359;BME280;16347;53.232;6.556;2023-01-26T03:13:37;102425.97;;;3.83;73.50
29359;BME280;16347;53.232;6.556;2023-01-26T03:16:07;102421.88;;;3.93;73.47
29359;BME280;16347;53.232;6.556;2023-01-26T03:18:37;102410.88;;;3.81;73.71
29359;BME280;16347;53.232;6.556;2023-01-26T03:21:22;102416.78;;;3.70;73.99
29359;BME280;16347;53.232;6.556;2023-01-26T03:24:12;102416.34;;;3.79;74.26
29359;BME280;16347;53.232;6.556;2023-01-26T03:27:08;102410.72;;;4.01;74.05
29359;BME280;16347;53.232;6.556;2023-01-26T03:30:03;102404.63;;;3.97;73.67
29359;BME280;16347;53.232;6.556;2023-01-26T03:32:32;102406.22;;;4.01;73.54
29359;BME280;16347;53.232;6.556;2023-01-26T03:35:03;102405.28;;;4.02;73.78
29359;BME280;16347;53.232;6.556;2023-01-26T03:37:33;102415.56;;;3.94;73.66
29359;BME280;16347;53.232;6.556;2023-01-26T03:40:12;102415.16;;;4.02;73.77
29359;BME280;16347;53.232;6.556;2023-01-26T03:43:06;102418.25;;;4.11;73.91
29359;BME280;16347;53.232;6.556;2023-01-26T03:45:53;102417.31;;;4.12;73.71
29359;BME280;16347;53.232;6.556;2023-01-26T03:48:39;102419.75;;;4.17;74.00
29359;BME280;16347;53.232;6.556;2023-01-26T03:51:24;102419.84;;;4.16;74.06
29359;BME280;16347;53.232;6.556;2023-01-26T03:54:10;102416.44;;;4.29;73.82
29359;BME280;16347;53.232;6.556;2023-01-26T03:56:56;102408.97;;;4.34;73.29
29359;BME280;16347;53.232;6.556;2023-01-26T03:59:25;102410.78;;;4.34;73.15
29359;BME280;16347;53.232;6.556;2023-01-26T04:02:17;102410.16;;;4.29;73.27
29359;BME280;16347;53.232;6.556;2023-01-26T04:05:04;102412.69;;;4.32;73.45
29359;BME280;16347;53.232;6.556;2023-01-26T04:08:00;102405.22;;;4.37;73.53
29359;BME280;16347;53.232;6.556;2023-01-26T04:10:46;102410.50;;;4.40;73.42
29359;BME280;16347;53.232;6.556;2023-01-26T04:13:14;102404.28;;;4.38;73.33
29359;BME280;16347;53.232;6.556;2023-01-26T04:16:06;102406.50;;;4.47;73.47
29359;BME280;16347;53.232;6.556;2023-01-26T04:18:54;102408.63;;;4.57;73.37
29359;BME280;16347;53.232;6.556;2023-01-26T04:21:39;102402.44;;;4.55;73.21
29359;BME280;16347;53.232;6.556;2023-01-26T04:24:17;102401.38;;;4.42;73.34
29359;BME280;16347;53.232;6.556;2023-01-26T04:26:53;102399.56;;;4.43;73.43
29359;BME280;16347;53.232;6.556;2023-01-26T04:29:25;102393.50;;;4.55;73.41
29359;BME280;16347;53.232;6.556;2023-01-26T04:31:54;102395.72;;;4.47;73.40
29359;BME280;16347;53.232;6.556;2023-01-26T04:34:23;102395.56;;;4.50;73.36
29359;BME280;16347;53.232;6.556;2023-01-26T04:36:52;102392.88;;;4.50;73.63
29359;BME280;16347;53.232;6.556;2023-01-26T04:39:23;102390.56;;;4.59;73.32
29359;BME280;16347;53.232;6.556;2023-01-26T04:41:54;102391.56;;;4.57;73.56
29359;BME280;16347;53.232;6.556;2023-01-26T04:44:23;102386.66;;;4.65;73.08
29359;BME280;16347;53.232;6.556;2023-01-26T04:46:52;102390.28;;;4.64;73.26
29359;BME280;16347;53.232;6.556;2023-01-26T04:49:20;102386.44;;;4.52;73.82
29359;BME280;16347;53.232;6.556;2023-01-26T04:51:50;102381.44;;;4.62;73.92
29359;BME280;16347;53.232;6.556;2023-01-26T04:54:18;102385.03;;;4.78;73.88
29359;BME280;16347;53.232;6.556;2023-01-26T04:56:46;102382.78;;;4.86;73.69
29359;BME280;16347;53.232;6.556;2023-01-26T04:59:14;102385.03;;;4.94;73.80
29359;BME280;16347;53.232;6.556;2023-01-26T05:01:43;102389.25;;;4.99;73.85
29359;BME280;16347;53.232;6.556;2023-01-26T05:04:11;102384.19;;;5.09;73.93
29359;BME280;16347;53.232;6.556;2023-01-26T05:06:42;102394.63;;;5.15;73.56
29359;BME280;16347;53.232;6.556;2023-01-26T05:09:12;102390.81;;;5.19;73.80
29359;BME280;16347;53.232;6.556;2023-01-26T05:11:42;102384.66;;;5.17;73.68
29359;BME280;16347;53.232;6.556;2023-01-26T05:14:28;102389.75;;;5.22;73.54
29359;BME280;16347;53.232;6.556;2023-01-26T05:17:02;102387.94;;;5.22;73.33
29359;BME280;16347;53.232;6.556;2023-01-26T05:20:00;102383.41;;;5.23;73.33
29359;BME280;16347;53.232;6.556;2023-01-26T05:22:31;102380.44;;;5.27;73.33
29359;BME280;16347;53.232;6.556;2023-01-26T05:25:24;102378.44;;;5.31;73.79
29359;BME280;16347;53.232;6.556;2023-01-26T05:28:01;102384.34;;;5.37;74.22
29359;BME280;16347;53.232;6.556;2023-01-26T05:30:29;102387.41;;;5.47;74.63
29359;BME280;16347;53.232;6.556;2023-01-26T05:33:00;102383.94;;;5.60;74.71
29359;BME280;16347;53.232;6.556;2023-01-26T05:35:29;102383.19;;;5.73;75.34
29359;BME280;16347;53.232;6.556;2023-01-26T05:37:58;102387.97;;;5.83;75.19
29359;BME280;16347;53.232;6.556;2023-01-26T05:40:31;102384.75;;;5.92;75.60
29359;BME280;16347;53.232;6.556;2023-01-26T05:42:59;102379.66;;;6.02;75.60
29359;BME280;16347;53.232;6.556;2023-01-26T05:45:57;102382.84;;;6.08;75.53
29359;BME280;16347;53.232;6.556;2023-01-26T05:48:25;102390.50;;;6.16;75.68
29359;BME280;16347;53.232;6.556;2023-01-26T05:50:55;102388.41;;;6.21;76.05
29359;BME280;16347;53.232;6.556;2023-01-26T05:53:24;102384.44;;;6.27;76.07
29359;BME280;16347;53.232;6.556;2023-01-26T05:55:54;102390.53;;;6.30;75.92
29359;BME280;16347;53.232;6.556;2023-01-26T05:58:25;102398.25;;;6.36;75.92
29359;BME280;16347;53.232;6.556;2023-01-26T06:00:54;102400.69;;;6.41;76.25
29359;BME280;16347;53.232;6.556;2023-01-26T06:03:28;102406.78;;;6.44;76.29
29359;BME280;16347;53.232;6.556;2023-01-26T06:05:56;102411.13;;;6.47;76.83
29359;BME280;16347;53.232;6.556;2023-01-26T06:08:36;102404.44;;;6.52;76.63
29359;BME280;16347;53.232;6.556;2023-01-26T06:11:24;102404.25;;;6.55;76.88
29359;BME280;16347;53.232;6.556;2023-01-26T06:14:18;102406.69;;;6.60;76.90
29359;BME280;16347;53.232;6.556;2023-01-26T06:16:47;102409.13;;;6.64;77.02
29359;BME280;16347;53.232;6.556;2023-01-26T06:19:15;102411.63;;;6.67;77.52
29359;BME280;16347;53.232;6.556;2023-01-26T06:21:48;102417.72;;;6.71;77.75
29359;BME280;16347;53.232;6.556;2023-01-26T06:24:16;102417.72;;;6.71;77.82
29359;BME280;16347;53.232;6.556;2023-01-26T06:26:47;102412.00;;;6.76;77.76
29359;BME280;16347;53.232;6.556;2023-01-26T06:29:16;102411.72;;;6.80;77.56
29359;BME280;16347;53.232;6.556;2023-01-26T06:31:44;102413.53;;;6.80;77.62
29359;BME280;16347;53.232;6.556;2023-01-26T06:34:12;102422.34;;;6.83;77.67
29359;BME280;16347;53.232;6.556;2023-01-26T06:36:42;102422.25;;;6.85;77.53
29359;BME280;16347;53.232;6.556;2023-01-26T06:39:17;102425.72;;;6.87;77.70
29359;BME280;16347;53.232;6.556;2023-01-26T06:41:47;102432.94;;;6.86;77.75
29359;BME280;16347;53.232;6.556;2023-01-26T06:44:16;102432.69;;;6.91;77.81
29359;BME280;16347;53.232;6.556;2023-01-26T06:46:44;102439.72;;;6.93;77.63
29359;BME280;16347;53.232;6.556;2023-01-26T06:49:12;102441.28;;;6.97;77.82
29359;BME280;16347;53.232;6.556;2023-01-26T06:51:45;102441.34;;;6.96;77.62
29359;BME280;16347;53.232;6.556;2023-01-26T06:54:15;102445.03;;;6.95;77.87
29359;BME280;16347;53.232;6.556;2023-01-26T06:57:02;102444.94;;;6.96;77.66
29359;BME280;16347;53.232;6.556;2023-01-26T07:00:03;102437.88;;;6.94;77.27
29359;BME280;16347;53.232;6.556;2023-01-26T07:02:55;102444.94;;;6.96;77.22
29359;BME280;16347;53.232;6.556;2023-01-26T07:05:23;102454.13;;;6.94;77.18
29359;BME280;16347;53.232;6.556;2023-01-26T07:07:51;102452.09;;;6.97;77.32
29359;BME280;16347;53.232;6.556;2023-01-26T07:10:20;102456.53;;;6.98;77.18
29359;BME280;16347;53.232;6.556;2023-01-26T07:12:50;102464.66;;;6.98;77.05
29359;BME280;16347;53.232;6.556;2023-01-26T07:15:19;102469.06;;;6.99;77.11
29359;BME280;16347;53.232;6.556;2023-01-26T07:17:48;102465.50;;;6.99;77.32
29359;BME280;16347;53.232;6.556;2023-01-26T07:20:16;102474.41;;;7.01;77.29
29359;BME280;16347;53.232;6.556;2023-01-26T07:22:45;102485.03;;;7.04;77.36
29359;BME280;16347;53.232;6.556;2023-01-26T07:25:13;102473.31;;;7.03;76.75
29359;BME280;16347;53.232;6.556;2023-01-26T07:27:41;102482.19;;;7.05;77.00
29359;BME280;16347;53.232;6.556;2023-01-26T07:30:12;102489.28;;;7.08;76.91
29359;BME280;16347;53.232;6.556;2023-01-26T07:32:41;102490.91;;;7.10;76.81
29359;BME280;16347;53.232;6.556;2023-01-26T07:35:09;102489.09;;;7.11;76.73
29359;BME280;16347;53.232;6.556;2023-01-26T07:37:37;102483.75;;;7.09;76.87
29359;BME280;16347;53.232;6.556;2023-01-26T07:40:07;102498.28;;;7.08;77.10
29359;BME280;16347;53.232;6.556;2023-01-26T07:42:36;102499.91;;;7.11;76.62
29359;BME280;16347;53.232;6.556;2023-01-26T07:45:19;102494.69;;;7.08;76.81
29359;BME280;16347;53.232;6.556;2023-01-26T07:47:48;102499.22;;;7.07;76.95
29359;BME280;16347;53.232;6.556;2023-01-26T07:50:16;102499.09;;;7.09;76.73
29359;BME280;16347;53.232;6.556;2023-01-26T07:52:47;102508.09;;;7.09;76.47
29359;BME280;16347;53.232;6.556;2023-01-26T07:55:15;102512.75;;;7.07;76.26
29359;BME280;16347;53.232;6.556;2023-01-26T07:57:46;102501.94;;;7.07;76.06
29359;BME280;16347;53.232;6.556;2023-01-26T08:00:18;102498.34;;;7.07;76.00
29359;BME280;16347;53.232;6.556;2023-01-26T08:02:48;102505.50;;;7.08;76.08
29359;BME280;16347;53.232;6.556;2023-01-26T08:05:16;102500.97;;;7.08;75.92
29359;BME280;16347;53.232;6.556;2023-01-26T08:07:44;102507.13;;;7.10;76.14
29359;BME280;16347;53.232;6.556;2023-01-26T08:10:13;102510.81;;;7.09;75.59
29359;BME280;16347;53.232;6.556;2023-01-26T08:12:41;102520.75;;;7.09;75.62
29359;BME280;16347;53.232;6.556;2023-01-26T08:15:10;102519.91;;;7.08;75.89
29359;BME280;16347;53.232;6.556;2023-01-26T08:17:41;102517.97;;;7.10;75.62
29359;BME280;16347;53.232;6.556;2023-01-26T08:20:10;102509.72;;;7.12;75.71
29359;BME280;16347;53.232;6.556;2023-01-26T08:22:40;102517.00;;;7.11;75.83
29359;BME280;16347;53.232;6.556;2023-01-26T08:25:09;102519.72;;;7.11;75.41
29359;BME280;16347;53.232;6.556;2023-01-26T08:27:37;102512.44;;;7.12;75.40
29359;BME280;16347;53.232;6.556;2023-01-26T08:30:08;102518.72;;;7.12;75.56
29359;BME280;16347;53.232;6.556;2023-01-26T08:32:37;102523.19;;;7.13;75.30
29359;BME280;16347;53.232;6.556;2023-01-26T08:35:08;102513.22;;;7.14;75.58
29359;BME280;16347;53.232;6.556;2023-01-26T08:37:36;102513.91;;;7.17;75.38
29359;BME280;16347;53.232;6.556;2023-01-26T08:40:06;102509.25;;;7.19;75.54
29359;BME280;16347;53.232;6.556;2023-01-26T08:42:35;102512.75;;;7.21;75.81
29359;BME280;16347;53.232;6.556;2023-01-26T08:45:03;102504.44;;;7.25;75.67
29359;BME280;16347;53.232;6.556;2023-01-26T08:47:31;102507.91;;;7.27;75.82
29359;BME280;16347;53.232;6.556;2023-01-26T08:50:00;102516.78;;;7.29;75.61
29359;BME280;16347;53.232;6.556;2023-01-26T08:52:30;102510.34;;;7.31;75.60
29359;BME280;16347;53.232;6.556;2023-01-26T08:54:58;102512.94;;;7.33;75.94
29359;BME280;16347;53.232;6.556;2023-01-26T08:57:27;102511.00;;;7.35;75.71
29359;BME280;16347;53.232;6.556;2023-01-26T08:59:55;102510.03;;;7.36;75.40
29359;BME280;16347;53.232;6.556;2023-01-26T09:02:23;102515.34;;;7.37;75.71
29359;BME280;16347;53.232;6.556;2023-01-26T09:04:52;102515.91;;;7.42;75.59
29359;BME280;16347;53.232;6.556;2023-01-26T09:07:20;102523.06;;;7.43;75.80
29359;BME280;16347;53.232;6.556;2023-01-26T09:09:49;102521.44;;;7.41;75.82
29359;BME280;16347;53.232;6.556;2023-01-26T09:12:17;102524.03;;;7.42;75.78
29359;BME280;16347;53.232;6.556;2023-01-26T09:14:45;102526.56;;;7.45;75.93
29359;BME280;16347;53.232;6.556;2023-01-26T09:17:13;102528.59;;;7.42;76.21
29359;BME280;16347;53.232;6.556;2023-01-26T09:19:41;102527.22;;;7.49;76.53
29359;BME280;16347;53.232;6.556;2023-01-26T09:22:10;102534.09;;;7.54;76.38
29359;BME280;16347;53.232;6.556;2023-01-26T09:24:38;102532.25;;;7.55;76.45
29359;BME280;16347;53.232;6.556;2023-01-26T09:27:08;102530.44;;;7.55;76.23
29359;BME280;16347;53.232;6.556;2023-01-26T09:29:36;102525.78;;;7.57;76.24
29359;BME280;16347;53.232;6.556;2023-01-26T09:32:04;102532.81;;;7.60;76.39
29359;BME280;16347;53.232;6.556;2023-01-26T09:34:32;102536.19;;;7.63;76.60
29359;BME280;16347;53.232;6.556;2023-01-26T09:37:01;102532.34;;;7.67;76.22
29359;BME280;16347;53.232;6.556;2023-01-26T09:39:29;102537.47;;;7.72;76.45
29359;BME280;16347;53.232;6.556;2023-01-26T09:42:05;102547.41;;;7.71;76.56
29359;BME280;16347;53.232;6.556;2023-01-26T09:44:45;102544.38;;;7.76;76.73
29359;BME280;16347;53.232;6.556;2023-01-26T09:47:22;102545.06;;;7.80;76.43
29359;BME280;16347;53.232;6.556;2023-01-26T09:49:56;102548.66;;;7.80;76.53
29359;BME280;16347;53.232;6.556;2023-01-26T09:52:29;102541.31;;;7.82;76.74
29359;BME280;16347;53.232;6.556;2023-01-26T09:55:02;102549.59;;;7.79;76.62
29359;BME280;16347;53.232;6.556;2023-01-26T09:57:36;102542.16;;;7.83;76.79
29359;BME280;16347;53.232;6.556;2023-01-26T10:00:09;102548.16;;;7.88;77.11
29359;BME280;16347;53.232;6.556;2023-01-26T10:02:52;102557.72;;;7.93;76.89
29359;BME280;16347;53.232;6.556;2023-01-26T10:05:29;102541.06;;;7.99;77.07
29359;BME280;16347;53.232;6.556;2023-01-26T10:08:09;102545.50;;;8.00;77.15
29359;BME280;16347;53.232;6.556;2023-01-26T10:10:43;102548.00;;;8.03;76.89
29359;BME280;16347;53.232;6.556;2023-01-26T10:13:14;102547.72;;;8.08;77.23
29359;BME280;16347;53.232;6.556;2023-01-26T10:15:47;102549.47;;;8.09;77.25
29359;BME280;16347;53.232;6.556;2023-01-26T10:18:21;102541.34;;;8.09;77.14
29359;BME280;16347;53.232;6.556;2023-01-26T10:20:53;102537.22;;;8.16;77.19
29359;BME280;16347;53.232;6.556;2023-01-26T10:23:26;102539.19;;;8.14;77.20
29359;BME280;16347;53.232;6.556;2023-01-26T10:26:00;102537.13;;;8.17;77.38
29359;BME280;16347;53.232;6.556;2023-01-26T10:28:32;102533.91;;;8.25;77.38
29359;BME280;16347;53.232;6.556;2023-01-26T10:31:07;102539.22;;;8.26;77.27
29359;BME280;16347;53.232;6.556;2023-01-26T10:33:42;102522.78;;;8.30;77.30
29359;BME280;16347;53.232;6.556;2023-01-26T10:36:15;102524.31;;;8.34;77.11
29359;BME280;16347;53.232;6.556;2023-01-26T10:38:44;102526.94;;;8.35;77.22
29359;BME280;16347;53.232;6.556;2023-01-26T10:41:24;102530.97;;;8.42;77.04
29359;BME280;16347;53.232;6.556;2023-01-26T10:43:55;102531.81;;;8.43;76.80
29359;BME280;16347;53.232;6.556;2023-01-26T10:46:30;102537.59;;;8.51;76.91
29359;BME280;16347;53.232;6.556;2023-01-26T10:49:00;102540.88;;;8.56;77.10
29359;BME280;16347;53.232;6.556;2023-01-26T10:51:31;102536.13;;;8.59;76.82
29359;BME280;16347;53.232;6.556;2023-01-26T10:54:14;102547.97;;;8.71;76.79
29359;BME280;16347;53.232;6.556;2023-01-26T10:56:48;102548.69;;;8.60;76.77
29359;BME280;16347;53.232;6.556;2023-01-26T10:59:27;102536.97;;;8.60;76.29
29359;BME280;16347;53.232;6.556;2023-01-26T11:01:59;102536.00;;;8.61;76.67
29359;BME280;16347;53.232;6.556;2023-01-26T11:04:28;102519.94;;;8.58;75.78
29359;BME280;16347;53.232;6.556;2023-01-26T11:07:23;102527.56;;;8.65;75.77
29359;BME280;16347;53.232;6.556;2023-01-26T11:09:52;102526.63;;;8.79;75.07
29359;BME280;16347;53.232;6.556;2023-01-26T11:12:23;102532.78;;;8.68;74.92
29359;BME280;16347;53.232;6.556;2023-01-26T11:14:59;102528.97;;;8.71;74.71
29359;BME280;16347;53.232;6.556;2023-01-26T11:17:36;102520.63;;;8.74;74.58
29359;BME280;16347;53.232;6.556;2023-01-26T11:20:16;102532.56;;;8.84;73.96
29359;BME280;16347;53.232;6.556;2023-01-26T11:22:58;102524.78;;;8.92;73.87
29359;BME280;16347;53.232;6.556;2023-01-26T11:25:34;102521.41;;;9.01;74.15
29359;BME280;16347;53.232;6.556;2023-01-26T11:28:18;102512.84;;;9.07;72.74
29359;BME280;16347;53.232;6.556;2023-01-26T11:30:54;102514.06;;;9.16;71.70
29359;BME280;16347;53.232;6.556;2023-01-26T11:33:34;102515.31;;;9.10;71.39
29359;BME280;16347;53.232;6.556;2023-01-26T11:36:11;102512.31;;;9.02;70.03
29359;BME280;16347;53.232;6.556;2023-01-26T11:38:45;102502.84;;;9.08;69.43
29359;BME280;16347;53.232;6.556;2023-01-26T11:41:32;102517.50;;;9.18;68.98
29359;BME280;16347;53.232;6.556;2023-01-26T11:44:28;102521.97;;;9.19;68.54
29359;BME280;16347;53.232;6.556;2023-01-26T11:47:09;102512.97;;;9.06;69.20
29359;BME280;16347;53.232;6.556;2023-01-26T11:49:56;102506.44;;;9.21;69.46
29359;BME280;16347;53.232;6.556;2023-01-26T11:52:35;102513.03;;;9.17;69.66
29359;BME280;16347;53.232;6.556;2023-01-26T11:55:26;102510.69;;;9.12;69.94
29359;BME280;16347;53.232;6.556;2023-01-26T11:58:09;102510.56;;;9.14;70.63
29359;BME280;16347;53.232;6.556;2023-01-26T12:00:43;102505.25;;;9.12;70.59
29359;BME280;16347;53.232;6.556;2023-01-26T12:03:20;102501.97;;;9.07;71.44
29359;BME280;16347;53.232;6.556;2023-01-26T12:05:56;102508.19;;;9.09;71.65
29359;BME280;16347;53.232;6.556;2023-01-26T12:08:30;102497.56;;;9.06;72.08
29359;BME280;16347;53.232;6.556;2023-01-26T12:11:07;102497.13;;;9.12;72.21
29359;BME280;16347;53.232;6.556;2023-01-26T12:14:06;102490.16;;;9.08;72.21
29359;BME280;16347;53.232;6.556;2023-01-26T12:16:46;102486.81;;;8.92;72.93
29359;BME280;16347;53.232;6.556;2023-01-26T12:19:31;102480.19;;;8.96;73.39
29359;BME280;16347;53.232;6.556;2023-01-26T12:22:12;102481.28;;;9.06;72.78
29359;BME280;16347;53.232;6.556;2023-01-26T12:24:46;102481.06;;;9.09;72.47
29359;BME280;16347;53.232;6.556;2023-01-26T12:27:42;102478.88;;;9.14;72.81
29359;BME280;16347;53.232;6.556;2023-01-26T12:30:23;102474.41;;;9.13;73.18
29359;BME280;16347;53.232;6.556;2023-01-26T12:32:55;102477.69;;;9.18;72.86
29359;BME280;16347;53.232;6.556;2023-01-26T12:35:34;102471.03;;;9.10;72.55
29359;BME280;16347;53.232;6.556;2023-01-26T12:38:13;102473.31;;;9.03;72.39
29359;BME280;16347;53.232;6.556;2023-01-26T12:40:53;102465.41;;;9.00;71.77
29359;BME280;16347;53.232;6.556;2023-01-26T12:43:38;102461.63;;;9.03;71.51
29359;BME280;16347;53.232;6.556;2023-01-26T12:46:12;102459.56;;;9.06;71.25
29359;BME280;16347;53.232;6.556;2023-01-26T12:48:44;102446.31;;;9.02;70.82
29359;BME280;16347;53.232;6.556;2023-01-26T12:51:19;102454.25;;;9.05;70.23
29359;BME280;16347;53.232;6.556;2023-01-26T12:53:55;102449.25;;;8.99;70.54
29359;BME280;16347;53.232;6.556;2023-01-26T12:56:29;102444.25;;;9.05;70.33
29359;BME280;16347;53.232;6.556;2023-01-26T12:59:05;102457.28;;;9.13;70.33
29359;BME280;16347;53.232;6.556;2023-01-26T13:01:59;102458.91;;;9.15;69.91
29359;BME280;16347;53.232;6.556;2023-01-26T13:04:36;102456.19;;;9.15;69.99
29359;BME280;16347;53.232;6.556;2023-01-26T13:07:26;102449.66;;;9.18;69.77
29359;BME280;16347;53.232;6.556;2023-01-26T13:10:19;102435.13;;;9.19;69.91
29359;BME280;16347;53.232;6.556;2023-01-26T13:12:51;102443.50;;;9.16;69.74
29359;BME280;16347;53.232;6.556;2023-01-26T13:15:22;102444.78;;;9.10;69.39
29359;BME280;16347;53.232;6.556;2023-01-26T13:17:54;102451.44;;;9.06;68.83
29359;BME280;16347;53.232;6.556;2023-01-26T13:20:43;102443.91;;;9.10;68.88
29359;BME280;16347;53.232;6.556;2023-01-26T13:23:36;102432.63;;;9.03;69.06
29359;BME280;16347;53.232;6.556;2023-01-26T13:29:32;102426.22;;;9.04;69.11
29359;BME280;16347;53.232;6.556;2023-01-26T13:35:08;102430.91;;;9.02;69.61
29359;BME280;16347;53.232;6.556;2023-01-26T13:37:45;102425.50;;;9.02;69.65
29359;BME280;16347;53.232;6.556;2023-01-26T13:40:20;102428.53;;;8.98;69.99